Terminal Aerodrome Forecast
Issued by NWS Duluth, MN

Home | Current Version | Previous Version | Text Only | Print | Product List | Glossary On
Versions: 1 2 3 4 5 6 7 8 9 10 11 12 13 14 15 16 17 18 19 20 21 22 23 24 25 26 27 28 29 30 31
000
FTUS43 KDLH 282341
TAFDLH
TAF
KDLH 282341Z 2900/2924 08005KT 4SM -DZ VCSH BKN003 OVC012
     FM290200 VRB02KT 1SM -DZ BR VCSH OVC003
     FM290400 VRB02KT 1/2SM -DZ FG VCSH OVC002
      TEMPO 2910/2913 1/4SM FG
     FM291400 29011G18KT P6SM BKN006 OVC018
     FM291800 29013G20KT P6SM VCSH OVC025=

USA.gov is the U.S. government's official web portal to all federal, state and local government web resources and services.